Time;durP1;ratioP1;P1;durP2;ratioP2;P2;SDS_P1;SDS_P2;PMS_P1;PMS_P2;Temp;Humidity;BMP_temperature;BMP_pressure;BME280_temperature;BME280_humidity;BME280_pressure;Samples;Min_cycle;Max_cycle;Signal;HPM_P1;HPM_P2
2023/05/11 00:00:23;;;;;;;5.47;5.18;;;;;;;11.18;72.75;95240.94;5040860;28;20210;-64
2023/05/11 00:02:50;;;;;;;5.78;5.38;;;;;;;11.22;72.99;95234.06;5041460;28;20298;-64
2023/05/11 00:05:17;;;;;;;5.50;5.10;;;;;;;11.22;72.95;95236.59;5041812;28;20210;-64
2023/05/11 00:07:43;;;;;;;5.63;5.30;;;;;;;11.22;72.83;95242.50;5040894;28;20304;-67
2023/05/11 00:10:11;;;;;;;6.05;5.55;;;;;;;11.20;72.99;95246.81;5038242;28;20325;-63
2023/05/11 00:12:39;;;;;;;8.27;7.57;;;;;;;11.15;73.37;95237.66;5038471;28;20325;-64
2023/05/11 00:15:06;;;;;;;6.45;5.85;;;;;;;11.03;73.70;95243.19;5036481;28;20298;-68
2023/05/11 00:17:33;;;;;;;6.20;5.78;;;;;;;11.06;73.88;95240.53;5037672;28;20322;-66
2023/05/11 00:20:00;;;;;;;5.50;5.15;;;;;;;11.00;73.70;95241.56;5038033;28;20710;-65
2023/05/11 00:22:26;;;;;;;5.75;5.45;;;;;;;10.97;73.88;95235.72;5038321;28;20317;-65
2023/05/11 00:24:53;;;;;;;4.90;4.35;;;;;;;10.96;74.07;95234.06;5037355;28;20361;-63
2023/05/11 00:27:20;;;;;;;5.03;4.72;;;;;;;10.95;74.03;95240.03;5039003;28;20301;-64
2023/05/11 00:29:48;;;;;;;5.78;5.28;;;;;;;10.84;74.14;95245.47;5038312;28;20557;-67
2023/05/11 00:32:15;;;;;;;4.65;4.35;;;;;;;10.85;73.69;95247.97;5038449;28;20202;-66
2023/05/11 00:34:41;;;;;;;4.82;4.53;;;;;;;10.75;73.98;95241.50;5042675;28;20805;-66
2023/05/11 00:37:08;;;;;;;5.45;5.05;;;;;;;10.66;74.13;95251.13;5038150;28;20213;-65
2023/05/11 00:39:39;;;;;;;6.65;4.90;;;;;;;10.65;74.25;95250.28;5038232;28;20755;-64
2023/05/11 00:42:06;;;;;;;5.32;4.75;;;;;;;10.62;74.00;95249.56;5038506;28;20230;-65
2023/05/11 00:44:33;;;;;;;4.35;4.05;;;;;;;10.58;73.82;95246.28;5039897;28;20289;-64
2023/05/11 00:47:01;;;;;;;9.10;5.18;;;;;;;10.68;73.65;95244.28;5041905;28;20202;-62
2023/05/11 00:49:27;;;;;;;5.90;5.47;;;;;;;10.76;73.05;95258.41;5040616;28;20895;-66
2023/05/11 00:51:56;;;;;;;5.18;4.78;;;;;;;10.67;73.40;95248.53;5041437;28;20321;-66
2023/05/11 00:54:23;;;;;;;5.68;5.05;;;;;;;10.78;72.70;95246.50;5039321;28;20960;-65
2023/05/11 00:56:50;;;;;;;5.18;4.68;;;;;;;10.80;72.78;95251.53;5043067;28;20291;-64
2023/05/11 00:59:17;;;;;;;5.40;4.72;;;;;;;10.72;72.95;95256.03;5042425;28;20194;-66
2023/05/11 01:01:44;;;;;;;5.70;4.50;;;;;;;10.65;73.17;95255.38;5043000;28;20213;-67
2023/05/11 01:04:13;;;;;;;5.15;4.65;;;;;;;10.61;73.48;95253.81;5040046;28;20230;-65
2023/05/11 01:06:47;;;;;;;6.47;5.15;;;;;;;10.69;73.08;95244.22;5043284;28;20289;-67
2023/05/11 01:09:27;;;;;;;6.00;5.43;;;;;;;10.51;73.27;95249.88;5041516;28;20323;-66
2023/05/11 01:12:06;;;;;;;7.95;4.97;;;;;;;10.63;73.23;95247.00;5041352;28;20565;-66
2023/05/11 01:14:39;;;;;;;4.40;4.10;;;;;;;10.66;72.95;95249.41;5041729;28;20251;-65
2023/05/11 01:17:16;;;;;;;5.80;5.22;;;;;;;10.51;73.37;95255.81;5037993;28;20207;-65
2023/05/11 01:19:48;;;;;;;7.70;5.45;;;;;;;10.52;72.99;95251.56;5040277;28;20317;-65
2023/05/11 01:22:31;;;;;;;4.88;4.57;;;;;;;10.54;72.85;95257.41;5042011;28;20307;-66
2023/05/11 01:25:10;;;;;;;6.75;4.97;;;;;;;10.51;73.37;95254.97;5040589;28;20349;-68
2023/05/11 01:27:55;;;;;;;5.32;4.93;;;;;;;10.55;72.97;95256.53;5041102;28;20692;-66
2023/05/11 01:30:39;;;;;;;4.70;4.40;;;;;;;10.45;73.05;95257.69;5040249;28;20289;-65
2023/05/11 01:33:09;;;;;;;6.30;5.68;;;;;;;10.41;73.02;95256.94;5038709;28;20372;-65
2023/05/11 01:35:41;;;;;;;6.07;4.88;;;;;;;10.47;72.94;95261.00;5039907;28;20727;-66
2023/05/11 01:38:12;;;;;;;5.57;5.15;;;;;;;10.54;72.96;95265.03;5042626;28;20367;-64
2023/05/11 01:40:41;;;;;;;4.97;4.53;;;;;;;10.51;72.77;95249.88;5041048;28;20285;-66
2023/05/11 01:43:12;;;;;;;5.35;4.90;;;;;;;10.55;72.51;95246.38;5040433;28;20293;-66
2023/05/11 01:45:45;;;;;;;5.43;4.95;;;;;;;10.53;72.50;95258.28;5041285;28;20226;-67
2023/05/11 01:48:17;;;;;;;5.90;5.43;;;;;;;10.52;72.70;95254.09;5039867;28;20241;-65
2023/05/11 01:50:45;;;;;;;5.85;5.45;;;;;;;10.38;74.16;95272.31;5037135;28;20240;-65
2023/05/11 01:53:13;;;;;;;5.97;5.57;;;;;;;10.40;74.67;95265.44;5042031;28;20297;-65
2023/05/11 01:55:41;;;;;;;6.47;5.85;;;;;;;10.37;74.74;95259.66;5041031;28;20206;-65
2023/05/11 01:58:10;;;;;;;10.02;5.70;;;;;;;10.41;74.66;95264.56;5040201;28;20230;-64
2023/05/11 02:00:38;;;;;;;6.70;6.20;;;;;;;10.37;74.74;95263.03;5037311;28;20668;-68
2023/05/11 02:03:08;;;;;;;5.70;4.97;;;;;;;10.31;75.19;95264.91;5040583;28;20234;-66
2023/05/11 02:05:36;;;;;;;6.20;5.80;;;;;;;10.20;74.97;95260.94;5041727;28;20328;-65
2023/05/11 02:08:05;;;;;;;6.10;5.60;;;;;;;10.35;74.71;95264.78;5042050;28;20254;-65
2023/05/11 02:10:33;;;;;;;6.50;6.00;;;;;;;10.45;74.08;95255.16;5041547;28;20329;-65
2023/05/11 02:13:04;;;;;;;5.10;4.70;;;;;;;10.30;74.12;95263.22;5040675;28;20692;-65
2023/05/11 02:15:31;;;;;;;6.25;5.85;;;;;;;10.37;73.78;95264.72;5041013;28;20236;-65
2023/05/11 02:17:58;;;;;;;6.88;6.15;;;;;;;10.37;73.54;95259.66;5041676;28;20293;-65
2023/05/11 02:20:27;;;;;;;4.95;4.63;;;;;;;10.32;73.51;95256.41;5041242;28;20755;-63
2023/05/11 02:22:55;;;;;;;11.35;6.10;;;;;;;10.36;73.28;95263.06;5040292;28;20285;-64
2023/05/11 02:25:23;;;;;;;5.95;4.45;;;;;;;10.32;72.98;95261.47;5040838;28;20328;-66
2023/05/11 02:27:51;;;;;;;6.03;5.63;;;;;;;10.29;73.06;95252.25;5041268;28;20230;-66
2023/05/11 02:30:17;;;;;;;5.50;5.00;;;;;;;10.34;72.96;95254.66;5041890;28;20281;-65
2023/05/11 02:32:51;;;;;;;8.20;5.07;;;;;;;10.28;72.47;95259.91;5041213;28;20845;-66
2023/05/11 02:35:22;;;;;;;7.45;5.25;;;;;;;10.28;72.58;95255.66;5041733;28;20202;-68
2023/05/11 02:37:55;;;;;;;5.90;5.30;;;;;;;10.26;72.82;95257.41;5039205;28;20285;-66
2023/05/11 02:40:30;;;;;;;7.22;4.93;;;;;;;10.18;73.06;95255.03;5039468;28;20238;-65
2023/05/11 02:43:00;;;;;;;6.78;5.25;;;;;;;10.16;72.72;95251.72;5038789;28;20332;-68
2023/05/11 02:45:31;;;;;;;6.60;5.35;;;;;;;10.15;72.94;95255.13;5039095;28;20332;-65
2023/05/11 02:47:58;;;;;;;5.47;5.00;;;;;;;10.07;73.10;95262.16;5039800;28;20293;-65
2023/05/11 02:50:29;;;;;;;5.22;4.82;;;;;;;10.00;73.83;95260.66;5038408;28;20611;-65
2023/05/11 02:53:01;;;;;;;4.70;4.40;;;;;;;9.96;73.56;95274.31;5039721;28;20288;-65
2023/05/11 02:55:29;;;;;;;5.13;4.72;;;;;;;9.85;73.87;95250.94;5040361;28;22098;-65
2023/05/11 02:57:56;;;;;;;5.78;5.25;;;;;;;9.81;74.23;95249.34;5039854;28;20206;-67
2023/05/11 03:00:23;;;;;;;5.78;5.35;;;;;;;9.76;74.00;95246.09;5041212;28;20234;-66
2023/05/11 03:02:49;;;;;;;5.40;5.00;;;;;;;9.79;74.31;95256.19;5041453;28;20252;-67
2023/05/11 03:05:16;;;;;;;5.07;4.68;;;;;;;9.81;74.50;95256.97;5041536;28;20195;-67
2023/05/11 03:07:44;;;;;;;5.55;5.15;;;;;;;9.74;74.52;95247.84;5041256;28;20244;-66
2023/05/11 03:10:12;;;;;;;5.80;5.15;;;;;;;9.74;74.64;95237.69;5041594;28;20226;-66
2023/05/11 03:12:39;;;;;;;6.03;5.40;;;;;;;9.78;74.46;95245.19;5040808;28;20293;-65
2023/05/11 03:15:07;;;;;;;5.63;5.13;;;;;;;9.79;74.81;95248.56;5041277;28;20234;-65
2023/05/11 03:17:35;;;;;;;6.53;5.50;;;;;;;9.82;74.48;95241.69;5040711;28;20289;-66
2023/05/11 03:20:02;;;;;;;5.85;5.38;;;;;;;9.86;74.65;95248.38;5040373;28;20213;-66
2023/05/11 03:22:30;;;;;;;5.57;5.20;;;;;;;9.77;74.59;95252.84;5040196;28;20666;-67
2023/05/11 03:24:57;;;;;;;7.97;5.18;;;;;;;9.77;74.40;95252.84;5039355;28;20238;-66
2023/05/11 03:27:26;;;;;;;7.82;5.47;;;;;;;9.76;74.61;95256.25;5039607;28;20681;-66
2023/05/11 03:29:54;;;;;;;6.78;6.18;;;;;;;9.81;74.82;95256.97;5040532;28;20322;-66
2023/05/11 03:32:21;;;;;;;5.70;5.30;;;;;;;9.83;74.48;95252.69;5041330;28;20826;-66
2023/05/11 03:34:48;;;;;;;6.97;6.35;;;;;;;9.70;75.09;95267.41;5040477;28;20242;-65
2023/05/11 03:37:18;;;;;;;5.78;5.38;;;;;;;9.79;74.69;95256.19;5040982;28;20213;-67
2023/05/11 03:39:47;;;;;;;7.85;6.45;;;;;;;9.82;74.26;95263.72;5039448;28;20293;-66
2023/05/11 03:42:15;;;;;;;7.25;6.65;;;;;;;9.80;74.65;95258.69;5040614;28;20858;-64
2023/05/11 03:44:46;;;;;;;6.57;5.97;;;;;;;9.71;74.76;95266.53;5039712;28;20294;-66
2023/05/11 03:47:14;;;;;;;5.55;5.15;;;;;;;9.71;74.96;95273.31;5039850;28;20700;-64
2023/05/11 03:49:42;;;;;;;7.25;6.10;;;;;;;9.74;75.09;95263.09;5039613;28;20833;-66
2023/05/11 03:52:10;;;;;;;7.57;6.97;;;;;;;9.80;75.27;95262.91;5040905;28;20716;-66
2023/05/11 03:54:37;;;;;;;13.43;6.82;;;;;;;9.76;75.35;95267.25;5040586;28;20272;-66
2023/05/11 03:57:04;;;;;;;5.82;5.43;;;;;;;9.73;75.47;95272.41;5040559;28;20303;-65
2023/05/11 03:59:31;;;;;;;7.03;6.47;;;;;;;9.85;75.64;95271.25;5039698;28;20210;-65
2023/05/11 04:02:00;;;;;;;7.30;6.65;;;;;;;9.86;75.59;95270.38;5041327;28;20663;-66
2023/05/11 04:04:28;;;;;;;7.55;6.63;;;;;;;9.65;76.44;95271.75;5039001;28;20750;-66
2023/05/11 04:06:55;;;;;;;7.78;7.07;;;;;;;9.69;76.72;95280.13;5041393;28;20234;-63
2023/05/11 04:09:22;;;;;;;7.13;6.47;;;;;;;9.70;76.67;95284.34;5043807;28;20218;-66
2023/05/11 04:11:48;;;;;;;8.38;7.57;;;;;;;9.70;76.49;95266.56;5043775;28;20766;-65
2023/05/11 04:14:16;;;;;;;6.25;5.75;;;;;;;9.67;76.53;95276.78;5043104;28;20297;-65
2023/05/11 04:16:43;;;;;;;9.00;8.30;;;;;;;9.79;76.83;95276.47;5043522;28;20251;-66
2023/05/11 04:19:11;;;;;;;8.43;7.72;;;;;;;9.74;76.49;95278.31;5044399;28;20289;-67
2023/05/11 04:21:37;;;;;;;7.32;6.72;;;;;;;9.71;77.08;95288.53;5043714;28;20201;-66
2023/05/11 04:24:05;;;;;;;8.82;8.10;;;;;;;9.62;77.65;95283.72;5043186;28;20356;-66
2023/05/11 04:26:31;;;;;;;8.43;7.65;;;;;;;9.46;78.14;95284.09;5043226;28;20214;-67
2023/05/11 04:28:58;;;;;;;9.23;8.32;;;;;;;9.54;77.96;95297.44;5042868;28;20325;-64
2023/05/11 04:31:25;;;;;;;10.25;9.05;;;;;;;9.67;78.22;95286.94;5043838;28;20319;-65
2023/05/11 04:33:51;;;;;;;12.05;9.90;;;;;;;9.60;77.96;95296.44;5043980;28;20210;-65
2023/05/11 04:36:21;;;;;;;10.23;8.98;;;;;;;9.64;77.97;95287.06;5043342;28;20293;-63
2023/05/11 04:38:47;;;;;;;10.75;8.95;;;;;;;9.70;78.29;95291.94;5042713;28;20316;-64
2023/05/11 04:41:14;;;;;;;10.23;9.18;;;;;;;9.73;78.15;95292.69;5041147;28;20979;-64
2023/05/11 04:43:41;;;;;;;10.38;9.27;;;;;;;9.72;78.24;95290.19;5041987;28;20371;-66
2023/05/11 04:46:08;;;;;;;10.38;9.48;;;;;;;9.77;78.56;95288.38;5041770;28;20289;-65
2023/05/11 04:48:34;;;;;;;10.80;9.73;;;;;;;9.81;78.18;95289.97;5040567;28;20753;-66
2023/05/11 04:51:04;;;;;;;12.82;10.57;;;;;;;9.72;78.73;95295.28;5041785;28;20328;-67
2023/05/11 04:53:32;;;;;;;10.65;9.57;;;;;;;9.69;78.81;95287.75;5043466;28;20233;-67
2023/05/11 04:55:58;;;;;;;11.30;10.15;;;;;;;9.54;79.38;95289.81;5043001;28;20298;-65
2023/05/11 04:58:25;;;;;;;13.30;11.27;;;;;;;9.72;79.28;95296.13;5043525;28;20293;-66
2023/05/11 05:00:52;;;;;;;14.55;10.73;;;;;;;9.79;78.53;95299.31;5042503;28;20217;-66
2023/05/11 05:03:18;;;;;;;13.68;10.60;;;;;;;9.80;78.58;95303.53;5043802;28;20301;-66
2023/05/11 05:05:45;;;;;;;12.13;10.90;;;;;;;9.76;78.62;95304.47;5042773;28;20602;-66
2023/05/11 05:08:12;;;;;;;17.65;12.00;;;;;;;9.86;78.65;95305.91;5043661;28;20298;-66
2023/05/11 05:10:40;;;;;;;11.50;10.32;;;;;;;9.87;78.42;95299.97;5043230;28;20226;-67
2023/05/11 05:13:06;;;;;;;16.13;9.38;;;;;;;9.74;78.44;95308.75;5042534;28;20297;-67
2023/05/11 05:15:33;;;;;;;20.73;11.55;;;;;;;9.89;78.43;95304.13;5042444;28;20723;-66
2023/05/11 05:17:59;;;;;;;12.07;10.57;;;;;;;9.98;77.81;95310.66;5043104;28;20349;-65
2023/05/11 05:20:26;;;;;;;14.63;11.57;;;;;;;9.98;77.49;95308.09;5042488;28;20315;-64
2023/05/11 05:22:54;;;;;;;12.45;11.15;;;;;;;10.10;77.71;95312.03;5042431;28;20298;-66
2023/05/11 05:25:22;;;;;;;11.50;9.10;;;;;;;10.07;77.47;95322.25;5043366;28;20234;-67
2023/05/11 05:27:50;;;;;;;12.27;10.95;;;;;;;10.00;77.57;95318.22;5042702;28;20206;-66
2023/05/11 05:30:16;;;;;;;14.20;11.82;;;;;;;10.06;78.02;95311.28;5043857;28;20284;-66
2023/05/11 05:32:43;;;;;;;12.55;10.30;;;;;;;10.01;77.75;95312.28;5042676;28;20344;-69
2023/05/11 05:35:10;;;;;;;16.95;9.52;;;;;;;9.99;78.28;95322.47;5042023;28;20265;-66
2023/05/11 05:37:36;;;;;;;13.95;11.65;;;;;;;9.99;78.55;95321.63;5042573;28;20352;-66
2023/05/11 05:40:04;;;;;;;14.45;13.05;;;;;;;10.15;77.98;95315.25;5042436;28;20209;-66
2023/05/11 05:42:31;;;;;;;15.27;13.40;;;;;;;10.23;77.58;95321.00;5042574;28;20214;-67
2023/05/11 05:44:59;;;;;;;14.65;13.07;;;;;;;10.34;77.22;95328.31;5040815;28;20305;-65
2023/05/11 05:47:25;;;;;;;14.50;12.93;;;;;;;10.20;77.22;95324.44;5042080;28;20292;-67
2023/05/11 05:49:52;;;;;;;11.82;10.63;;;;;;;10.13;77.50;95328.00;5042132;28;20340;-69
2023/05/11 05:52:19;;;;;;;14.45;13.00;;;;;;;10.18;77.33;95326.16;5042895;28;20335;-66
2023/05/11 05:54:45;;;;;;;13.77;12.40;;;;;;;10.31;77.05;95330.94;5042190;28;20664;-67
2023/05/11 05:57:12;;;;;;;16.58;13.57;;;;;;;10.27;76.94;95329.34;5042425;28;20297;-68
2023/05/11 05:59:39;;;;;;;16.48;13.85;;;;;;;10.22;77.03;95337.94;5042182;28;20284;-66
2023/05/11 06:02:07;;;;;;;12.88;11.55;;;;;;;10.25;77.05;95337.03;5042131;28;20293;-66
2023/05/11 06:04:34;;;;;;;14.32;12.00;;;;;;;10.23;77.25;95343.84;5042666;28;20435;-67
2023/05/11 06:07:00;;;;;;;13.52;12.20;;;;;;;10.18;77.13;95332.94;5041758;28;20893;-66
2023/05/11 06:09:27;;;;;;;14.10;12.80;;;;;;;10.22;76.89;95342.19;5041984;28;20333;-67
2023/05/11 06:11:53;;;;;;;14.18;12.82;;;;;;;10.39;76.60;95339.19;5042302;28;20329;-66
2023/05/11 06:14:21;;;;;;;11.88;10.77;;;;;;;10.29;76.70;95342.84;5042086;28;20207;-67
2023/05/11 06:16:48;;;;;;;12.50;11.30;;;;;;;10.27;76.78;95339.53;5041366;28;20289;-68
2023/05/11 06:19:16;;;;;;;13.55;11.27;;;;;;;10.21;77.17;95343.88;5042194;28;20638;-66
2023/05/11 06:21:44;;;;;;;12.25;11.05;;;;;;;10.32;76.68;95347.84;5042553;28;20348;-67
2023/05/11 06:24:11;;;;;;;15.88;11.07;;;;;;;10.41;76.47;95350.09;5041455;28;20225;-66
2023/05/11 06:26:38;;;;;;;12.18;11.02;;;;;;;10.47;76.31;95353.31;5041344;28;20301;-67
2023/05/11 06:29:04;;;;;;;12.30;10.95;;;;;;;10.56;75.77;95358.16;5041178;28;20228;-65
2023/05/11 06:31:31;;;;;;;13.48;11.30;;;;;;;10.53;75.99;95354.84;5040763;28;21039;-67
2023/05/11 06:33:58;;;;;;;17.38;12.85;;;;;;;10.47;76.32;95352.47;5041359;28;20263;-67
2023/05/11 06:36:26;;;;;;;13.40;10.98;;;;;;;10.40;76.17;95356.06;5040742;28;20312;-67
2023/05/11 06:38:53;;;;;;;11.18;9.70;;;;;;;10.37;76.27;95362.09;5041607;28;20289;-68
2023/05/11 06:41:20;;;;;;;12.05;10.73;;;;;;;10.28;76.83;95366.59;5040321;28;20287;-65
2023/05/11 06:43:46;;;;;;;13.90;11.55;;;;;;;10.28;76.87;95361.50;5040578;28;20206;-67
2023/05/11 06:46:16;;;;;;;13.35;11.85;;;;;;;10.32;76.49;95347.84;5039451;28;20345;-66
2023/05/11 06:48:43;;;;;;;11.38;10.18;;;;;;;10.53;75.86;95360.78;5039810;28;20642;-67
2023/05/11 06:51:10;;;;;;;17.35;11.25;;;;;;;10.52;75.71;95353.19;5039237;28;20823;-67
2023/05/11 06:53:38;;;;;;;23.70;12.02;;;;;;;10.72;75.54;95360.22;5040613;28;20302;-66
2023/05/11 06:56:05;;;;;;;12.77;10.85;;;;;;;10.48;75.54;95354.16;5041264;28;20614;-65
2023/05/11 06:58:32;;;;;;;12.40;11.02;;;;;;;10.54;75.19;95353.97;5041832;28;20210;-66
2023/05/11 07:00:59;;;;;;;13.48;11.32;;;;;;;10.63;75.30;95353.72;5040258;28;20367;-66
2023/05/11 07:03:26;;;;;;;12.00;10.90;;;;;;;10.85;74.41;95356.47;5041310;28;20211;-66
2023/05/11 07:05:53;;;;;;;13.55;10.35;;;;;;;11.05;73.41;95354.16;5040765;28;20267;-66
2023/05/11 07:08:19;;;;;;;11.32;10.20;;;;;;;11.17;72.34;95355.47;5041579;28;20584;-66
2023/05/11 07:10:47;;;;;;;14.15;9.80;;;;;;;11.23;71.72;95350.19;5040397;28;20317;-66
2023/05/11 07:13:14;;;;;;;8.40;7.63;;;;;;;11.25;71.38;95368.78;5040893;28;20241;-66
2023/05/11 07:15:40;;;;;;;10.93;8.65;;;;;;;11.23;71.22;95370.53;5040764;28;20206;-68
2023/05/11 07:18:07;;;;;;;12.18;9.68;;;;;;;11.28;71.51;95367.84;5042264;28;20399;-66
2023/05/11 07:20:35;;;;;;;10.63;9.68;;;;;;;11.50;70.81;95364.59;5040964;28;20289;-67
2023/05/11 07:23:02;;;;;;;10.45;9.45;;;;;;;11.79;70.40;95361.13;5039992;28;20576;-68
2023/05/11 07:25:29;;;;;;;11.63;10.52;;;;;;;11.95;69.78;95363.13;5039233;28;20369;-65
2023/05/11 07:27:57;;;;;;;11.73;10.45;;;;;;;12.46;68.10;95375.78;5040755;28;20289;-67
2023/05/11 07:30:24;;;;;;;7.43;6.78;;;;;;;12.32;66.83;95370.34;5040728;28;20325;-67
2023/05/11 07:32:50;;;;;;;9.13;8.20;;;;;;;12.25;67.10;95364.63;5040715;28;20692;-66
2023/05/11 07:35:17;;;;;;;9.70;8.93;;;;;;;12.59;67.07;95364.25;5040429;28;20618;-66
2023/05/11 07:37:44;;;;;;;8.73;8.02;;;;;;;12.82;65.73;95360.84;5041059;28;20210;-66
2023/05/11 07:40:11;;;;;;;12.75;8.45;;;;;;;13.14;64.79;95375.75;5041353;28;20294;-67
2023/05/11 07:42:37;;;;;;;7.32;6.72;;;;;;;13.23;63.51;95359.28;5043876;28;20210;-66
2023/05/11 07:45:07;;;;;;;8.70;8.10;;;;;;;13.90;62.11;95365.06;5043538;28;20229;-67
2023/05/11 07:47:33;;;;;;;7.88;7.28;;;;;;;14.11;60.63;95363.31;5044035;28;20297;-66
2023/05/11 07:50:00;;;;;;;6.93;6.35;;;;;;;13.22;62.33;95378.06;5045226;28;20889;-66
2023/05/11 07:52:26;;;;;;;7.63;5.90;;;;;;;12.51;64.18;95389.19;5043858;28;20297;-67
2023/05/11 07:54:53;;;;;;;8.90;8.05;;;;;;;12.14;65.99;95382.81;5044924;28;20292;-65
2023/05/11 07:57:20;;;;;;;9.32;8.25;;;;;;;12.41;65.93;95372.56;5045064;28;20307;-67
2023/05/11 07:59:47;;;;;;;8.60;7.82;;;;;;;12.51;64.85;95371.34;5045053;28;20293;-66
2023/05/11 08:02:15;;;;;;;8.68;7.78;;;;;;;13.01;63.77;95368.63;5045012;28;20359;-66
2023/05/11 08:04:42;;;;;;;7.65;7.15;;;;;;;13.04;63.20;95371.06;5044601;28;20209;-68
2023/05/11 08:07:08;;;;;;;6.43;6.03;;;;;;;13.10;62.52;95371.69;5044456;28;20226;-67
2023/05/11 08:09:35;;;;;;;6.85;6.38;;;;;;;13.31;61.71;95370.03;5045135;28;20230;-67
2023/05/11 08:12:02;;;;;;;6.47;5.90;;;;;;;13.79;60.65;95367.25;5044007;28;20836;-67
2023/05/11 08:14:29;;;;;;;8.43;6.65;;;;;;;13.83;60.08;95366.22;5045226;28;20690;-68
2023/05/11 08:16:56;;;;;;;9.10;7.40;;;;;;;13.99;59.72;95363.03;5045258;28;20329;-66
2023/05/11 08:19:24;;;;;;;6.82;6.20;;;;;;;14.33;58.30;95367.53;5044302;28;20230;-66
2023/05/11 08:21:50;;;;;;;5.80;5.25;;;;;;;14.36;57.52;95377.59;5044319;28;20337;-66
2023/05/11 08:24:17;;;;;;;6.25;5.68;;;;;;;14.14;58.68;95362.38;5044701;28;20403;-67
2023/05/11 08:26:44;;;;;;;6.25;5.75;;;;;;;13.93;59.25;95364.94;5044472;28;20293;-66
2023/05/11 08:29:11;;;;;;;6.07;5.57;;;;;;;14.28;58.29;95360.91;5044052;28;20286;-66
2023/05/11 08:31:38;;;;;;;6.68;6.15;;;;;;;15.00;56.80;95351.75;5043812;28;20331;-66
2023/05/11 08:34:07;;;;;;;6.88;6.32;;;;;;;15.69;54.55;95364.72;5044296;28;20698;-66
2023/05/11 08:36:35;;;;;;;6.25;5.85;;;;;;;15.32;54.50;95371.56;5044945;28;20868;-67
2023/05/11 08:39:02;;;;;;;5.47;5.18;;;;;;;14.64;56.03;95372.97;5043147;28;21327;-67
2023/05/11 08:41:29;;;;;;;5.55;5.05;;;;;;;14.01;58.09;95366.34;5043178;28;20203;-67
2023/05/11 08:43:57;;;;;;;5.88;5.50;;;;;;;14.04;58.62;95366.22;5042821;28;21468;-66
2023/05/11 08:46:28;;;;;;;5.25;4.95;;;;;;;14.62;57.05;95359.41;5042030;28;20787;-67
2023/05/11 08:48:55;;;;;;;5.30;4.88;;;;;;;14.51;57.14;95364.19;5041724;28;20298;-67
2023/05/11 08:51:22;;;;;;;5.57;4.88;;;;;;;14.36;57.62;95362.25;5042463;28;20329;-66
2023/05/11 08:53:51;;;;;;;5.38;5.07;;;;;;;14.36;58.22;95377.59;5042494;28;20783;-66
2023/05/11 08:56:20;;;;;;;5.22;4.93;;;;;;;14.21;58.37;95363.78;5043701;28;20218;-68
2023/05/11 08:58:47;;;;;;;5.63;5.28;;;;;;;13.99;58.68;95351.06;5043619;28;20217;-67
2023/05/11 09:01:17;;;;;;;5.60;5.20;;;;;;;14.43;57.87;95350.91;5043011;28;20246;-65
2023/05/11 09:03:45;;;;;;;6.63;4.88;;;;;;;14.61;57.02;95343.25;5042792;28;20311;-65
2023/05/11 09:06:12;;;;;;;5.05;4.65;;;;;;;14.57;57.45;95348.59;5041007;28;20289;-67
2023/05/11 09:08:40;;;;;;;5.60;5.07;;;;;;;14.20;57.82;95365.50;5040691;28;20479;-65
2023/05/11 09:11:08;;;;;;;8.02;4.63;;;;;;;13.88;58.78;95356.63;5041359;28;20238;-65
2023/05/11 09:13:35;;;;;;;4.05;3.72;;;;;;;13.83;59.72;95365.41;5041971;28;20287;-66
2023/05/11 09:16:02;;;;;;;5.30;4.93;;;;;;;13.74;60.28;95347.88;5042588;28;20289;-58
2023/05/11 09:18:28;;;;;;;5.97;4.50;;;;;;;13.63;60.74;95348.31;5043284;28;20660;-66
2023/05/11 09:20:55;;;;;;;9.07;4.88;;;;;;;13.47;61.36;95344.72;5042779;28;20750;-64
2023/05/11 09:23:26;;;;;;;3.97;3.67;;;;;;;13.34;61.65;95362.28;5042148;28;20245;-63
2023/05/11 09:25:53;;;;;;;4.72;4.43;;;;;;;13.48;61.64;95362.53;5042615;28;20205;-64
2023/05/11 09:28:22;;;;;;;4.10;3.72;;;;;;;14.08;60.22;95357.53;5043840;28;21068;-67
2023/05/11 09:30:49;;;;;;;3.63;3.40;;;;;;;13.91;60.13;95376.09;5042473;28;20313;-67
2023/05/11 09:33:22;;;;;;;4.20;3.90;;;;;;;13.36;62.06;95369.88;5042344;28;20759;-66
2023/05/11 09:35:49;;;;;;;5.60;3.97;;;;;;;13.13;63.22;95356.22;5043338;28;20230;-65
2023/05/11 09:38:18;;;;;;;4.68;4.38;;;;;;;13.21;63.11;95361.06;5043854;28;20301;-67
2023/05/11 09:40:51;;;;;;;4.55;4.25;;;;;;;13.16;63.24;95360.41;5043280;28;20203;-67
2023/05/11 09:43:19;;;;;;;6.63;4.22;;;;;;;13.31;63.70;95361.56;5042576;28;20301;-67
2023/05/11 09:45:49;;;;;;;3.40;3.10;;;;;;;13.63;62.28;95344.03;5042264;28;20260;-67
2023/05/11 09:48:28;;;;;;;4.55;4.15;;;;;;;13.44;62.96;95355.06;5042576;28;20206;-67
2023/05/11 09:51:05;;;;;;;4.25;3.83;;;;;;;13.34;63.12;95352.06;5041364;28;20238;-67
2023/05/11 09:53:41;;;;;;;4.22;3.83;;;;;;;13.30;63.61;95358.16;5041944;28;20206;-68
2023/05/11 09:56:09;;;;;;;3.83;3.53;;;;;;;13.48;62.85;95348.94;5041995;28;20702;-67
2023/05/11 09:58:49;;;;;;;3.83;3.63;;;;;;;13.62;62.55;95341.53;5042989;28;20213;-67
2023/05/11 10:01:28;;;;;;;5.03;4.50;;;;;;;13.73;62.58;95338.56;5042148;28;20315;-67
2023/05/11 10:03:54;;;;;;;4.90;4.55;;;;;;;13.69;62.52;95334.47;5040157;28;21253;-65
2023/05/11 10:06:21;;;;;;;4.68;4.28;;;;;;;13.84;61.87;95334.69;5042703;28;21170;-66
2023/05/11 10:08:48;;;;;;;4.43;4.07;;;;;;;13.58;62.29;95337.47;5042627;28;20665;-66
2023/05/11 10:11:16;;;;;;;5.22;4.38;;;;;;;13.50;63.37;95322.47;5043037;28;20276;-67
2023/05/11 10:13:43;;;;;;;7.07;4.30;;;;;;;13.83;62.38;95327.06;5042164;28;20723;-66
2023/05/11 10:16:12;;;;;;;5.80;5.15;;;;;;;13.74;62.59;95327.44;5041832;28;20334;-68
2023/05/11 10:18:42;;;;;;;3.92;3.67;;;;;;;13.51;62.02;95330.94;5041887;28;20297;-66
2023/05/11 10:21:09;;;;;;;5.55;5.03;;;;;;;13.57;63.19;95310.28;5042118;28;20202;-65
2023/05/11 10:23:36;;;;;;;8.32;4.18;;;;;;;13.92;61.88;95308.78;5041150;28;20662;-66
2023/05/11 10:26:04;;;;;;;4.15;3.95;;;;;;;13.88;61.14;95322.59;5042438;28;20776;-66
2023/05/11 10:28:31;;;;;;;4.68;4.28;;;;;;;13.66;62.25;95314.16;5041174;28;20295;-66
2023/05/11 10:30:59;;;;;;;4.47;3.88;;;;;;;13.71;62.48;95315.63;5041238;28;20230;-67
2023/05/11 10:33:26;;;;;;;4.90;4.50;;;;;;;14.10;61.59;95307.19;5042660;28;20198;-67
2023/05/11 10:35:55;;;;;;;4.68;4.32;;;;;;;14.19;60.43;95320.38;5041942;28;20206;-66
2023/05/11 10:38:22;;;;;;;7.22;4.13;;;;;;;14.21;60.16;95298.13;5041708;28;20245;-66
2023/05/11 10:40:52;;;;;;;4.05;3.63;;;;;;;14.41;60.14;95299.00;5040631;28;20286;-69
2023/05/11 10:44:02;;;;;;;5.93;3.85;;;;;;;13.85;61.59;95285.25;5040147;28;20359;-64
2023/05/11 10:46:46;;;;;;;4.50;3.80;;;;;;;13.84;61.15;95293.81;5023582;28;20217;-65
2023/05/11 10:49:23;;;;;;;4.15;3.85;;;;;;;13.85;62.29;95294.63;5040241;28;20213;-67
2023/05/11 10:52:18;;;;;;;4.85;4.15;;;;;;;14.12;61.49;95290.03;5040437;28;20225;-66
2023/05/11 10:54:55;;;;;;;9.25;3.95;;;;;;;14.33;60.18;95303.63;5040588;28;20214;-67
2023/05/11 10:57:37;;;;;;;4.80;4.18;;;;;;;14.27;60.43;95297.88;5039747;28;20293;-66
2023/05/11 11:00:29;;;;;;;3.55;3.35;;;;;;;14.29;59.94;95297.81;5041671;28;20202;-65
2023/05/11 11:02:56;;;;;;;6.10;4.00;;;;;;;14.61;59.28;95293.81;5040780;28;20210;-66
2023/05/11 11:05:33;;;;;;;4.30;3.70;;;;;;;15.02;57.85;95286.81;5041769;28;20287;-66
2023/05/11 11:08:03;;;;;;;3.88;3.58;;;;;;;15.04;57.08;95285.00;5040541;28;20305;-65
2023/05/11 11:10:31;;;;;;;3.60;3.35;;;;;;;14.80;57.84;95286.16;5040893;28;20726;-65
2023/05/11 11:13:02;;;;;;;5.28;3.47;;;;;;;15.31;57.45;95282.84;5041167;28;20779;-67
2023/05/11 11:16:03;;;;;;;8.15;3.72;;;;;;;15.63;56.28;95286.41;5039668;28;20315;-65
2023/05/11 11:18:32;;;;;;;4.80;3.78;;;;;;;15.77;55.87;95290.84;5040650;28;20202;-66
2023/05/11 11:20:59;;;;;;;4.45;4.13;;;;;;;15.32;56.43;95287.06;5041085;28;20691;-65
2023/05/11 11:23:45;;;;;;;4.55;4.25;;;;;;;15.39;57.31;95285.84;5040689;28;20278;-66
2023/05/11 11:26:14;;;;;;;6.05;4.13;;;;;;;15.42;56.47;95293.38;5041140;28;20210;-66
2023/05/11 11:29:07;;;;;;;3.47;3.25;;;;;;;15.75;56.04;95277.28;5039943;28;20678;-67
2023/05/11 11:31:35;;;;;;;12.70;3.83;;;;;;;16.14;55.32;95277.81;5040101;28;20218;-66
2023/05/11 11:34:32;;;;;;;4.10;3.42;;;;;;;15.64;55.84;95270.97;5040499;28;20229;-67
2023/05/11 11:37:07;;;;;;;5.70;3.40;;;;;;;15.41;56.85;95271.25;5041369;28;20662;-66
2023/05/11 11:39:52;;;;;;;4.50;3.33;;;;;;;14.95;57.27;95270.91;5039966;28;20213;-68